Hauptseite
METAR-TAF:

METAR-TAF

Flughäfen :

Flughafen Ostende-Brügge

Ostende, Belgien

Breite: 51-12N, Länge: 002-52E, Höhe: 4 m

Beobachtung

Neuester Wetterbericht von vor 16 Minuten, um 07:50 UTC
Wind 8 kt aus Ost
Temperatur 14°C
Luftfeuchtigkeit 67%
Luftdruck 1025 hPa
Sichtweite: 7000 m

METAR: EBOS 090750Z 08008KT 7000 NSC 14/08 Q1025 NOSIG

Zeit: 10:06 (08:06 UTC)

Prognose

Neuester Wetterbericht von vor 3 Stunden und 6 Minuten, um 05:00 UTC
Gültige Prognose vom 09 um 06 UTC bis 10 um 12 UTC
Wind 8 kt aus Nordost
Sichtweite: 7000 m
Wahrscheinlichkeit 30% :
Zeitweise
vom 09 um 06 UTC bis 09 um 07 UTC
Sichtweite: 3500 m
feuchter Dunst

TAF: EBOS 090500Z 0906/1012 05008KT 7000 NSC PROB30 TEMPO 0906/0907 3500 BR

Wetterbeobachtungen und Prognosen von mehr als 4000 Flughäfen (METAR und TAF Bericht).

Die verfügbaren Stationen werden durch gelbe und rote Markierungen auf der Karte dargestellt.

Führen Sie die Maus auf sie, um den Namen der Station zu sehen.

Darauf klicken, um die Beobachtung von Wetterbeobachtungen und Prognosen zu sehen.

Um die Karte zu ändern : klicken Sie auf den grünen Tasten mit einem schwarzen Kreuz Zum Vergrößern, auf den grünen Button mit einem Gedankenstrich zu verkleinern, oder auf die grünen Pfeile für benachbarte Karten.


METAR-TAF: